Terminal Aerodrome Forecast
Issued by NWS Albany, NY

Home | Current Version | Previous Version | Text Only | Print | Product List | Glossary On
Versions: 1 2 3 4 5 6 7 8 9 10 11 12 13 14 15 16 17
299
FTUS41 KALY 260541 CCA
TAFALB
TAF COR
KALB 260541Z 2606/2706 05008KT 6SM -SHRA BR SCT005 OVC020
      TEMPO 2606/2610 BKN005
     FM261000 02006KT 5SM -DZ BR SCT008 OVC015
     FM261400 01005KT P6SM VCSH SCT008 OVC012
     FM261800 36007KT P6SM OVC020
     FM262300 VRB03KT P6SM OVC025=

USA.gov is the U.S. government's official web portal to all federal, state and local government web resources and services.